sensor_id;sensor_type;location;lat;lon;timestamp;P1;durP1;ratioP1;P2;durP2;ratioP2
29570;SDS011;16814;52.118;11.436;2024-01-15T00:01:28;22.83;;;13.88;;
29570;SDS011;16814;52.118;11.436;2024-01-15T00:03:54;25.00;;;14.27;;
29570;SDS011;16814;52.118;11.436;2024-01-15T00:06:19;23.07;;;14.27;;
29570;SDS011;16814;52.118;11.436;2024-01-15T00:08:45;23.08;;;13.65;;
29570;SDS011;16814;52.118;11.436;2024-01-15T00:11:11;23.30;;;14.20;;
29570;SDS011;16814;52.118;11.436;2024-01-15T00:13:36;25.47;;;14.13;;
29570;SDS011;16814;52.118;11.436;2024-01-15T00:16:02;24.17;;;14.13;;
29570;SDS011;16814;52.118;11.436;2024-01-15T00:18:29;22.85;;;13.15;;
29570;SDS011;16814;52.118;11.436;2024-01-15T00:20:55;22.15;;;13.68;;
29570;SDS011;16814;52.118;11.436;2024-01-15T00:23:20;20.83;;;12.90;;
29570;SDS011;16814;52.118;11.436;2024-01-15T00:25:46;23.27;;;13.05;;
29570;SDS011;16814;52.118;11.436;2024-01-15T00:28:11;24.63;;;13.80;;
29570;SDS011;16814;52.118;11.436;2024-01-15T00:30:37;26.30;;;14.18;;
29570;SDS011;16814;52.118;11.436;2024-01-15T00:33:02;23.27;;;13.73;;
29570;SDS011;16814;52.118;11.436;2024-01-15T00:35:28;22.98;;;13.32;;
29570;SDS011;16814;52.118;11.436;2024-01-15T00:37:53;24.77;;;13.83;;
29570;SDS011;16814;52.118;11.436;2024-01-15T00:40:19;25.07;;;13.97;;
29570;SDS011;16814;52.118;11.436;2024-01-15T00:42:44;23.52;;;13.32;;
29570;SDS011;16814;52.118;11.436;2024-01-15T00:45:10;24.70;;;13.33;;
29570;SDS011;16814;52.118;11.436;2024-01-15T00:47:36;26.02;;;14.00;;
29570;SDS011;16814;52.118;11.436;2024-01-15T00:50:01;24.10;;;14.33;;
29570;SDS011;16814;52.118;11.436;2024-01-15T00:52:27;23.80;;;14.23;;
29570;SDS011;16814;52.118;11.436;2024-01-15T00:54:52;27.90;;;14.67;;
29570;SDS011;16814;52.118;11.436;2024-01-15T00:57:17;25.47;;;14.30;;
29570;SDS011;16814;52.118;11.436;2024-01-15T00:59:44;25.77;;;14.10;;
29570;SDS011;16814;52.118;11.436;2024-01-15T01:02:10;23.33;;;13.88;;
29570;SDS011;16814;52.118;11.436;2024-01-15T01:04:35;24.73;;;14.50;;
29570;SDS011;16814;52.118;11.436;2024-01-15T01:07:01;25.00;;;13.87;;
29570;SDS011;16814;52.118;11.436;2024-01-15T01:09:26;26.98;;;14.43;;
29570;SDS011;16814;52.118;11.436;2024-01-15T01:11:55;25.50;;;15.00;;
29570;SDS011;16814;52.118;11.436;2024-01-15T01:14:21;25.20;;;14.65;;
29570;SDS011;16814;52.118;11.436;2024-01-15T01:16:46;27.63;;;14.48;;
29570;SDS011;16814;52.118;11.436;2024-01-15T01:19:12;25.27;;;13.97;;
29570;SDS011;16814;52.118;11.436;2024-01-15T01:21:37;27.77;;;14.70;;
29570;SDS011;16814;52.118;11.436;2024-01-15T01:24:03;28.60;;;15.35;;
29570;SDS011;16814;52.118;11.436;2024-01-15T01:26:29;24.53;;;14.23;;
29570;SDS011;16814;52.118;11.436;2024-01-15T01:28:55;27.75;;;15.00;;
29570;SDS011;16814;52.118;11.436;2024-01-15T01:31:21;27.20;;;15.30;;
29570;SDS011;16814;52.118;11.436;2024-01-15T01:33:46;25.02;;;14.05;;
29570;SDS011;16814;52.118;11.436;2024-01-15T01:36:12;28.83;;;15.00;;
29570;SDS011;16814;52.118;11.436;2024-01-15T01:38:37;24.38;;;13.05;;
29570;SDS011;16814;52.118;11.436;2024-01-15T01:41:04;24.63;;;13.05;;
29570;SDS011;16814;52.118;11.436;2024-01-15T01:43:30;23.80;;;13.00;;
29570;SDS011;16814;52.118;11.436;2024-01-15T01:45:56;27.47;;;13.57;;
29570;SDS011;16814;52.118;11.436;2024-01-15T01:48:23;25.13;;;13.45;;
29570;SDS011;16814;52.118;11.436;2024-01-15T01:50:51;24.58;;;13.07;;
29570;SDS011;16814;52.118;11.436;2024-01-15T01:53:18;25.52;;;13.27;;
29570;SDS011;16814;52.118;11.436;2024-01-15T01:55:44;24.15;;;13.43;;
29570;SDS011;16814;52.118;11.436;2024-01-15T01:58:11;23.60;;;13.55;;
29570;SDS011;16814;52.118;11.436;2024-01-15T02:00:36;24.00;;;13.30;;
29570;SDS011;16814;52.118;11.436;2024-01-15T02:03:02;22.52;;;12.68;;
29570;SDS011;16814;52.118;11.436;2024-01-15T02:05:28;23.02;;;11.88;;
29570;SDS011;16814;52.118;11.436;2024-01-15T02:07:55;22.73;;;10.90;;
29570;SDS011;16814;52.118;11.436;2024-01-15T02:10:21;18.30;;;9.97;;
29570;SDS011;16814;52.118;11.436;2024-01-15T02:12:46;16.67;;;9.75;;
29570;SDS011;16814;52.118;11.436;2024-01-15T02:15:13;18.08;;;9.75;;
29570;SDS011;16814;52.118;11.436;2024-01-15T02:17:56;19.00;;;10.20;;
29570;SDS011;16814;52.118;11.436;2024-01-15T02:20:25;18.65;;;10.00;;
29570;SDS011;16814;52.118;11.436;2024-01-15T02:22:51;19.23;;;10.00;;
29570;SDS011;16814;52.118;11.436;2024-01-15T02:25:16;18.15;;;10.10;;
29570;SDS011;16814;52.118;11.436;2024-01-15T02:27:43;18.08;;;9.02;;
29570;SDS011;16814;52.118;11.436;2024-01-15T02:30:10;19.85;;;8.95;;
29570;SDS011;16814;52.118;11.436;2024-01-15T02:32:37;18.33;;;9.25;;
29570;SDS011;16814;52.118;11.436;2024-01-15T02:35:03;16.60;;;9.15;;
29570;SDS011;16814;52.118;11.436;2024-01-15T02:37:28;15.93;;;7.73;;
29570;SDS011;16814;52.118;11.436;2024-01-15T02:39:54;17.57;;;9.30;;
29570;SDS011;16814;52.118;11.436;2024-01-15T02:42:19;21.10;;;8.00;;
29570;SDS011;16814;52.118;11.436;2024-01-15T02:44:45;16.27;;;7.72;;
29570;SDS011;16814;52.118;11.436;2024-01-15T02:47:10;18.07;;;8.00;;
29570;SDS011;16814;52.118;11.436;2024-01-15T02:49:36;15.82;;;7.88;;
29570;SDS011;16814;52.118;11.436;2024-01-15T02:52:02;17.53;;;8.60;;
29570;SDS011;16814;52.118;11.436;2024-01-15T02:54:27;15.27;;;8.15;;
29570;SDS011;16814;52.118;11.436;2024-01-15T02:56:53;15.10;;;7.50;;
29570;SDS011;16814;52.118;11.436;2024-01-15T02:59:18;19.17;;;8.20;;
29570;SDS011;16814;52.118;11.436;2024-01-15T03:01:44;19.37;;;8.40;;
29570;SDS011;16814;52.118;11.436;2024-01-15T03:04:10;21.88;;;7.22;;
29570;SDS011;16814;52.118;11.436;2024-01-15T03:06:35;16.38;;;7.18;;
29570;SDS011;16814;52.118;11.436;2024-01-15T03:09:01;16.27;;;7.10;;
29570;SDS011;16814;52.118;11.436;2024-01-15T03:11:28;16.93;;;6.90;;
29570;SDS011;16814;52.118;11.436;2024-01-15T03:13:54;20.83;;;7.10;;
29570;SDS011;16814;52.118;11.436;2024-01-15T03:16:20;16.17;;;6.93;;
29570;SDS011;16814;52.118;11.436;2024-01-15T03:18:45;18.60;;;6.83;;
29570;SDS011;16814;52.118;11.436;2024-01-15T03:21:11;18.87;;;6.43;;
29570;SDS011;16814;52.118;11.436;2024-01-15T03:23:37;13.57;;;5.97;;
29570;SDS011;16814;52.118;11.436;2024-01-15T03:26:03;14.17;;;5.90;;
29570;SDS011;16814;52.118;11.436;2024-01-15T03:28:28;18.40;;;5.45;;
29570;SDS011;16814;52.118;11.436;2024-01-15T03:30:55;16.65;;;5.70;;
29570;SDS011;16814;52.118;11.436;2024-01-15T03:33:21;22.83;;;6.60;;
29570;SDS011;16814;52.118;11.436;2024-01-15T03:35:46;18.13;;;4.88;;
29570;SDS011;16814;52.118;11.436;2024-01-15T03:38:12;21.70;;;5.03;;
29570;SDS011;16814;52.118;11.436;2024-01-15T03:40:37;14.07;;;4.50;;
29570;SDS011;16814;52.118;11.436;2024-01-15T03:43:03;15.53;;;4.13;;
29570;SDS011;16814;52.118;11.436;2024-01-15T03:45:28;16.30;;;4.20;;
29570;SDS011;16814;52.118;11.436;2024-01-15T03:47:54;11.43;;;3.60;;
29570;SDS011;16814;52.118;11.436;2024-01-15T03:50:19;13.23;;;3.92;;
29570;SDS011;16814;52.118;11.436;2024-01-15T03:52:45;17.17;;;4.40;;
29570;SDS011;16814;52.118;11.436;2024-01-15T03:55:10;16.20;;;3.75;;
29570;SDS011;16814;52.118;11.436;2024-01-15T03:57:36;17.50;;;4.00;;
29570;SDS011;16814;52.118;11.436;2024-01-15T04:00:02;18.65;;;4.30;;
29570;SDS011;16814;52.118;11.436;2024-01-15T04:02:28;17.42;;;4.40;;
29570;SDS011;16814;52.118;11.436;2024-01-15T04:04:54;16.30;;;4.50;;
29570;SDS011;16814;52.118;11.436;2024-01-15T04:07:19;12.53;;;3.90;;
29570;SDS011;16814;52.118;11.436;2024-01-15T04:09:45;14.32;;;4.10;;
29570;SDS011;16814;52.118;11.436;2024-01-15T04:12:10;20.67;;;4.00;;
29570;SDS011;16814;52.118;11.436;2024-01-15T04:14:36;15.00;;;3.80;;
29570;SDS011;16814;52.118;11.436;2024-01-15T04:17:01;15.60;;;4.33;;
29570;SDS011;16814;52.118;11.436;2024-01-15T04:19:27;16.35;;;4.03;;
29570;SDS011;16814;52.118;11.436;2024-01-15T04:21:53;17.53;;;3.90;;
29570;SDS011;16814;52.118;11.436;2024-01-15T04:24:18;18.50;;;4.20;;
29570;SDS011;16814;52.118;11.436;2024-01-15T04:26:44;14.50;;;3.97;;
29570;SDS011;16814;52.118;11.436;2024-01-15T04:29:10;11.45;;;3.80;;
29570;SDS011;16814;52.118;11.436;2024-01-15T04:31:36;18.73;;;4.22;;
29570;SDS011;16814;52.118;11.436;2024-01-15T04:34:01;17.67;;;4.37;;
29570;SDS011;16814;52.118;11.436;2024-01-15T04:36:27;16.42;;;4.45;;
29570;SDS011;16814;52.118;11.436;2024-01-15T04:38:52;11.37;;;3.70;;
29570;SDS011;16814;52.118;11.436;2024-01-15T04:41:18;14.33;;;4.23;;
29570;SDS011;16814;52.118;11.436;2024-01-15T04:43:43;11.35;;;4.28;;
29570;SDS011;16814;52.118;11.436;2024-01-15T04:46:09;15.07;;;4.27;;
29570;SDS011;16814;52.118;11.436;2024-01-15T04:48:34;17.65;;;4.38;;
29570;SDS011;16814;52.118;11.436;2024-01-15T04:51:00;15.23;;;3.87;;
29570;SDS011;16814;52.118;11.436;2024-01-15T04:53:26;15.38;;;3.90;;
29570;SDS011;16814;52.118;11.436;2024-01-15T04:55:51;18.10;;;4.38;;
29570;SDS011;16814;52.118;11.436;2024-01-15T04:58:17;12.30;;;3.47;;
29570;SDS011;16814;52.118;11.436;2024-01-15T05:00:42;22.23;;;4.90;;
29570;SDS011;16814;52.118;11.436;2024-01-15T05:03:08;17.87;;;3.87;;
29570;SDS011;16814;52.118;11.436;2024-01-15T05:05:34;19.80;;;4.30;;
29570;SDS011;16814;52.118;11.436;2024-01-15T05:07:59;22.23;;;4.70;;
29570;SDS011;16814;52.118;11.436;2024-01-15T05:10:25;12.33;;;3.60;;
29570;SDS011;16814;52.118;11.436;2024-01-15T05:12:50;18.53;;;3.83;;
29570;SDS011;16814;52.118;11.436;2024-01-15T05:15:16;22.77;;;4.20;;
29570;SDS011;16814;52.118;11.436;2024-01-15T05:17:41;13.77;;;3.63;;
29570;SDS011;16814;52.118;11.436;2024-01-15T05:20:07;16.17;;;3.43;;
29570;SDS011;16814;52.118;11.436;2024-01-15T05:22:33;16.27;;;4.05;;
29570;SDS011;16814;52.118;11.436;2024-01-15T05:24:59;14.07;;;3.87;;
29570;SDS011;16814;52.118;11.436;2024-01-15T05:27:24;18.85;;;3.65;;
29570;SDS011;16814;52.118;11.436;2024-01-15T05:29:50;11.93;;;3.10;;
29570;SDS011;16814;52.118;11.436;2024-01-15T05:32:15;20.65;;;3.90;;
29570;SDS011;16814;52.118;11.436;2024-01-15T05:34:41;19.80;;;3.83;;
29570;SDS011;16814;52.118;11.436;2024-01-15T05:37:06;17.77;;;3.88;;
29570;SDS011;16814;52.118;11.436;2024-01-15T05:39:32;15.63;;;3.30;;
29570;SDS011;16814;52.118;11.436;2024-01-15T05:41:58;19.15;;;3.60;;
29570;SDS011;16814;52.118;11.436;2024-01-15T05:44:24;16.63;;;3.53;;
29570;SDS011;16814;52.118;11.436;2024-01-15T05:46:49;16.30;;;3.25;;
29570;SDS011;16814;52.118;11.436;2024-01-15T05:49:15;15.67;;;3.07;;
29570;SDS011;16814;52.118;11.436;2024-01-15T05:51:40;14.25;;;3.42;;
29570;SDS011;16814;52.118;11.436;2024-01-15T05:54:06;15.10;;;3.03;;
29570;SDS011;16814;52.118;11.436;2024-01-15T05:56:31;17.40;;;3.27;;
29570;SDS011;16814;52.118;11.436;2024-01-15T05:58:57;13.00;;;2.92;;
29570;SDS011;16814;52.118;11.436;2024-01-15T06:01:22;13.97;;;3.07;;
29570;SDS011;16814;52.118;11.436;2024-01-15T06:03:48;18.90;;;2.97;;
29570;SDS011;16814;52.118;11.436;2024-01-15T06:06:14;19.17;;;3.20;;
29570;SDS011;16814;52.118;11.436;2024-01-15T06:08:39;17.55;;;3.47;;
29570;SDS011;16814;52.118;11.436;2024-01-15T06:11:05;13.23;;;3.37;;
29570;SDS011;16814;52.118;11.436;2024-01-15T06:13:31;12.02;;;3.08;;
29570;SDS011;16814;52.118;11.436;2024-01-15T06:15:57;13.97;;;3.10;;
29570;SDS011;16814;52.118;11.436;2024-01-15T06:18:23;14.00;;;3.50;;
29570;SDS011;16814;52.118;11.436;2024-01-15T06:20:48;12.82;;;3.08;;
29570;SDS011;16814;52.118;11.436;2024-01-15T06:23:14;15.73;;;3.50;;
29570;SDS011;16814;52.118;11.436;2024-01-15T06:25:39;16.13;;;4.20;;
29570;SDS011;16814;52.118;11.436;2024-01-15T06:28:05;17.40;;;3.37;;
29570;SDS011;16814;52.118;11.436;2024-01-15T06:30:30;14.43;;;3.43;;
29570;SDS011;16814;52.118;11.436;2024-01-15T06:32:56;16.17;;;3.90;;
29570;SDS011;16814;52.118;11.436;2024-01-15T06:35:22;11.60;;;3.70;;
29570;SDS011;16814;52.118;11.436;2024-01-15T06:37:47;17.20;;;3.70;;
29570;SDS011;16814;52.118;11.436;2024-01-15T06:40:13;15.97;;;3.83;;
29570;SDS011;16814;52.118;11.436;2024-01-15T06:42:38;14.32;;;3.42;;
29570;SDS011;16814;52.118;11.436;2024-01-15T06:45:04;16.80;;;3.50;;
29570;SDS011;16814;52.118;11.436;2024-01-15T06:47:30;15.67;;;3.37;;
29570;SDS011;16814;52.118;11.436;2024-01-15T06:49:57;18.03;;;3.80;;
29570;SDS011;16814;52.118;11.436;2024-01-15T06:52:23;13.82;;;3.90;;
29570;SDS011;16814;52.118;11.436;2024-01-15T06:54:49;14.90;;;3.57;;
29570;SDS011;16814;52.118;11.436;2024-01-15T06:57:14;13.75;;;3.60;;
29570;SDS011;16814;52.118;11.436;2024-01-15T06:59:40;15.73;;;3.70;;
29570;SDS011;16814;52.118;11.436;2024-01-15T07:02:05;14.10;;;3.73;;
29570;SDS011;16814;52.118;11.436;2024-01-15T07:04:31;14.33;;;3.80;;
29570;SDS011;16814;52.118;11.436;2024-01-15T07:06:56;17.53;;;3.90;;
29570;SDS011;16814;52.118;11.436;2024-01-15T07:09:22;16.38;;;4.45;;
29570;SDS011;16814;52.118;11.436;2024-01-15T07:11:47;15.10;;;3.70;;
29570;SDS011;16814;52.118;11.436;2024-01-15T07:14:13;15.13;;;4.32;;
29570;SDS011;16814;52.118;11.436;2024-01-15T07:16:39;13.33;;;4.10;;
29570;SDS011;16814;52.118;11.436;2024-01-15T07:19:04;13.23;;;3.92;;
29570;SDS011;16814;52.118;11.436;2024-01-15T07:21:30;14.10;;;4.43;;
29570;SDS011;16814;52.118;11.436;2024-01-15T07:23:55;14.18;;;4.20;;
29570;SDS011;16814;52.118;11.436;2024-01-15T07:26:21;20.57;;;5.33;;
29570;SDS011;16814;52.118;11.436;2024-01-15T07:28:47;18.35;;;4.55;;
29570;SDS011;16814;52.118;11.436;2024-01-15T07:31:12;12.73;;;4.17;;
29570;SDS011;16814;52.118;11.436;2024-01-15T07:33:40;17.85;;;4.60;;
29570;SDS011;16814;52.118;11.436;2024-01-15T07:36:05;14.90;;;4.20;;
29570;SDS011;16814;52.118;11.436;2024-01-15T07:38:31;12.27;;;4.25;;
29570;SDS011;16814;52.118;11.436;2024-01-15T07:40:57;13.27;;;4.82;;
29570;SDS011;16814;52.118;11.436;2024-01-15T07:43:22;13.00;;;4.73;;
29570;SDS011;16814;52.118;11.436;2024-01-15T07:45:48;16.77;;;5.00;;
29570;SDS011;16814;52.118;11.436;2024-01-15T07:48:13;16.33;;;4.55;;
29570;SDS011;16814;52.118;11.436;2024-01-15T07:50:39;12.07;;;4.50;;
29570;SDS011;16814;52.118;11.436;2024-01-15T07:53:05;16.40;;;4.28;;
29570;SDS011;16814;52.118;11.436;2024-01-15T07:55:30;15.77;;;5.25;;
29570;SDS011;16814;52.118;11.436;2024-01-15T07:57:55;18.37;;;4.97;;
29570;SDS011;16814;52.118;11.436;2024-01-15T08:00:24;15.30;;;5.20;;
29570;SDS011;16814;52.118;11.436;2024-01-15T08:02:50;22.75;;;5.32;;
29570;SDS011;16814;52.118;11.436;2024-01-15T08:05:16;16.65;;;4.70;;
29570;SDS011;16814;52.118;11.436;2024-01-15T08:07:41;16.90;;;4.43;;
29570;SDS011;16814;52.118;11.436;2024-01-15T08:10:07;13.77;;;4.23;;
29570;SDS011;16814;52.118;11.436;2024-01-15T08:12:33;14.35;;;4.25;;
29570;SDS011;16814;52.118;11.436;2024-01-15T08:14:58;11.23;;;4.10;;
29570;SDS011;16814;52.118;11.436;2024-01-15T08:17:24;11.70;;;4.22;;
29570;SDS011;16814;52.118;11.436;2024-01-15T08:19:53;12.85;;;4.70;;
29570;SDS011;16814;52.118;11.436;2024-01-15T08:22:19;11.13;;;4.20;;
29570;SDS011;16814;52.118;11.436;2024-01-15T08:24:45;19.93;;;5.07;;
29570;SDS011;16814;52.118;11.436;2024-01-15T08:27:10;16.07;;;4.67;;
29570;SDS011;16814;52.118;11.436;2024-01-15T08:29:36;15.27;;;5.38;;
29570;SDS011;16814;52.118;11.436;2024-01-15T08:32:02;16.83;;;4.70;;
29570;SDS011;16814;52.118;11.436;2024-01-15T08:34:27;16.85;;;5.55;;
29570;SDS011;16814;52.118;11.436;2024-01-15T08:36:53;13.30;;;5.63;;
29570;SDS011;16814;52.118;11.436;2024-01-15T08:39:19;14.70;;;5.43;;
29570;SDS011;16814;52.118;11.436;2024-01-15T08:41:45;11.80;;;4.90;;
29570;SDS011;16814;52.118;11.436;2024-01-15T08:44:13;18.90;;;6.15;;
29570;SDS011;16814;52.118;11.436;2024-01-15T08:46:39;20.90;;;5.70;;
29570;SDS011;16814;52.118;11.436;2024-01-15T08:49:04;20.70;;;5.83;;
29570;SDS011;16814;52.118;11.436;2024-01-15T08:51:30;18.00;;;5.78;;
29570;SDS011;16814;52.118;11.436;2024-01-15T08:53:56;16.30;;;4.80;;
29570;SDS011;16814;52.118;11.436;2024-01-15T08:56:22;14.65;;;4.72;;
29570;SDS011;16814;52.118;11.436;2024-01-15T08:58:48;14.80;;;5.20;;
29570;SDS011;16814;52.118;11.436;2024-01-15T09:01:13;18.67;;;4.80;;
29570;SDS011;16814;52.118;11.436;2024-01-15T09:03:39;12.27;;;5.18;;
29570;SDS011;16814;52.118;11.436;2024-01-15T09:06:07;17.33;;;4.77;;
29570;SDS011;16814;52.118;11.436;2024-01-15T09:08:32;11.55;;;4.82;;
29570;SDS011;16814;52.118;11.436;2024-01-15T09:10:58;11.23;;;4.30;;
29570;SDS011;16814;52.118;11.436;2024-01-15T09:13:24;17.17;;;4.87;;
29570;SDS011;16814;52.118;11.436;2024-01-15T09:15:49;12.73;;;4.38;;
29570;SDS011;16814;52.118;11.436;2024-01-15T09:18:15;16.40;;;4.83;;
29570;SDS011;16814;52.118;11.436;2024-01-15T09:20:40;16.37;;;4.57;;
29570;SDS011;16814;52.118;11.436;2024-01-15T09:23:06;10.75;;;4.20;;
29570;SDS011;16814;52.118;11.436;2024-01-15T09:25:31;15.47;;;4.30;;
29570;SDS011;16814;52.118;11.436;2024-01-15T09:27:57;16.35;;;4.18;;
29570;SDS011;16814;52.118;11.436;2024-01-15T09:30:23;12.23;;;4.05;;
29570;SDS011;16814;52.118;11.436;2024-01-15T09:32:48;14.47;;;4.60;;
29570;SDS011;16814;52.118;11.436;2024-01-15T09:35:14;12.03;;;4.23;;
29570;SDS011;16814;52.118;11.436;2024-01-15T09:37:39;11.03;;;4.07;;
29570;SDS011;16814;52.118;11.436;2024-01-15T09:40:05;9.60;;;4.20;;
29570;SDS011;16814;52.118;11.436;2024-01-15T09:42:33;13.18;;;4.32;;
29570;SDS011;16814;52.118;11.436;2024-01-15T09:45:00;11.63;;;4.53;;
29570;SDS011;16814;52.118;11.436;2024-01-15T09:47:26;12.85;;;3.80;;
29570;SDS011;16814;52.118;11.436;2024-01-15T09:49:51;15.53;;;4.57;;
29570;SDS011;16814;52.118;11.436;2024-01-15T09:52:17;13.17;;;4.07;;
29570;SDS011;16814;52.118;11.436;2024-01-15T09:54:44;12.33;;;3.97;;
29570;SDS011;16814;52.118;11.436;2024-01-15T09:57:11;9.82;;;3.80;;
29570;SDS011;16814;52.118;11.436;2024-01-15T09:59:37;9.60;;;3.53;;
29570;SDS011;16814;52.118;11.436;2024-01-15T10:02:03;10.90;;;3.70;;
29570;SDS011;16814;52.118;11.436;2024-01-15T10:04:31;10.45;;;4.13;;
29570;SDS011;16814;52.118;11.436;2024-01-15T10:06:56;9.43;;;3.87;;
29570;SDS011;16814;52.118;11.436;2024-01-15T10:09:25;9.95;;;4.30;;
29570;SDS011;16814;52.118;11.436;2024-01-15T10:11:50;10.83;;;4.03;;
29570;SDS011;16814;52.118;11.436;2024-01-15T10:14:16;11.05;;;4.13;;
29570;SDS011;16814;52.118;11.436;2024-01-15T10:16:42;15.90;;;7.30;;
29570;SDS011;16814;52.118;11.436;2024-01-15T10:19:07;16.30;;;6.43;;
29570;SDS011;16814;52.118;11.436;2024-01-15T10:21:34;9.52;;;4.15;;
29570;SDS011;16814;52.118;11.436;2024-01-15T10:24:00;9.98;;;4.15;;
29570;SDS011;16814;52.118;11.436;2024-01-15T10:26:26;11.35;;;4.95;;
29570;SDS011;16814;52.118;11.436;2024-01-15T10:28:52;10.40;;;4.40;;
29570;SDS011;16814;52.118;11.436;2024-01-15T10:31:17;13.70;;;4.67;;
29570;SDS011;16814;52.118;11.436;2024-01-15T10:33:44;13.23;;;4.72;;
29570;SDS011;16814;52.118;11.436;2024-01-15T10:36:10;11.40;;;5.10;;
29570;SDS011;16814;52.118;11.436;2024-01-15T10:38:38;9.70;;;4.53;;
29570;SDS011;16814;52.118;11.436;2024-01-15T10:41:04;10.50;;;3.97;;
29570;SDS011;16814;52.118;11.436;2024-01-15T10:43:29;10.83;;;4.43;;
29570;SDS011;16814;52.118;11.436;2024-01-15T10:45:55;9.48;;;4.25;;
29570;SDS011;16814;52.118;11.436;2024-01-15T10:48:21;12.88;;;3.47;;
29570;SDS011;16814;52.118;11.436;2024-01-15T10:50:47;11.30;;;3.63;;
29570;SDS011;16814;52.118;11.436;2024-01-15T10:53:13;10.52;;;3.90;;
29570;SDS011;16814;52.118;11.436;2024-01-15T10:55:42;9.88;;;3.83;;
29570;SDS011;16814;52.118;11.436;2024-01-15T10:58:08;12.65;;;4.75;;
29570;SDS011;16814;52.118;11.436;2024-01-15T11:00:34;13.00;;;4.60;;
29570;SDS011;16814;52.118;11.436;2024-01-15T11:03:02;15.47;;;3.77;;
29570;SDS011;16814;52.118;11.436;2024-01-15T11:05:33;10.23;;;3.60;;
29570;SDS011;16814;52.118;11.436;2024-01-15T11:08:08;12.55;;;3.70;;
29570;SDS011;16814;52.118;11.436;2024-01-15T11:10:41;7.95;;;3.80;;
29570;SDS011;16814;52.118;11.436;2024-01-15T11:15:59;13.00;;;3.72;;
29570;SDS011;16814;52.118;11.436;2024-01-15T11:18:30;11.48;;;3.30;;
29570;SDS011;16814;52.118;11.436;2024-01-15T11:23:44;10.95;;;3.63;;
29570;SDS011;16814;52.118;11.436;2024-01-15T11:28:55;13.95;;;3.40;;
29570;SDS011;16814;52.118;11.436;2024-01-15T11:33:53;13.30;;;3.40;;
29570;SDS011;16814;52.118;11.436;2024-01-15T11:36:20;12.77;;;3.60;;
29570;SDS011;16814;52.118;11.436;2024-01-15T11:44:24;12.73;;;3.10;;
29570;SDS011;16814;52.118;11.436;2024-01-15T11:47:00;9.48;;;2.80;;
29570;SDS011;16814;52.118;11.436;2024-01-15T11:52:17;15.93;;;3.10;;
29570;SDS011;16814;52.118;11.436;2024-01-15T11:57:50;15.20;;;3.42;;
29570;SDS011;16814;52.118;11.436;2024-01-15T12:00:16;11.68;;;3.00;;
29570;SDS011;16814;52.118;11.436;2024-01-15T12:02:43;9.60;;;2.97;;
29570;SDS011;16814;52.118;11.436;2024-01-15T12:05:10;8.95;;;2.50;;
29570;SDS011;16814;52.118;11.436;2024-01-15T12:07:41;11.67;;;3.43;;
29570;SDS011;16814;52.118;11.436;2024-01-15T12:10:10;9.43;;;2.30;;
29570;SDS011;16814;52.118;11.436;2024-01-15T12:15:11;8.13;;;2.40;;
29570;SDS011;16814;52.118;11.436;2024-01-15T12:17:36;12.13;;;2.42;;
29570;SDS011;16814;52.118;11.436;2024-01-15T12:20:06;11.40;;;2.65;;
29570;SDS011;16814;52.118;11.436;2024-01-15T12:22:32;9.77;;;2.53;;
29570;SDS011;16814;52.118;11.436;2024-01-15T12:24:58;11.57;;;2.60;;
29570;SDS011;16814;52.118;11.436;2024-01-15T12:27:24;10.23;;;2.90;;
29570;SDS011;16814;52.118;11.436;2024-01-15T12:29:50;15.80;;;4.80;;
29570;SDS011;16814;52.118;11.436;2024-01-15T12:32:18;15.10;;;3.53;;
29570;SDS011;16814;52.118;11.436;2024-01-15T12:34:44;12.27;;;4.82;;
29570;SDS011;16814;52.118;11.436;2024-01-15T12:37:10;13.60;;;4.20;;
29570;SDS011;16814;52.118;11.436;2024-01-15T12:39:37;13.07;;;4.07;;
29570;SDS011;16814;52.118;11.436;2024-01-15T12:42:03;10.68;;;3.03;;
29570;SDS011;16814;52.118;11.436;2024-01-15T12:44:29;10.18;;;2.72;;
29570;SDS011;16814;52.118;11.436;2024-01-15T12:46:55;5.30;;;2.30;;
29570;SDS011;16814;52.118;11.436;2024-01-15T12:49:21;9.73;;;2.17;;
29570;SDS011;16814;52.118;11.436;2024-01-15T12:51:56;8.63;;;2.13;;
29570;SDS011;16814;52.118;11.436;2024-01-15T12:54:22;8.20;;;2.08;;
29570;SDS011;16814;52.118;11.436;2024-01-15T12:56:51;8.40;;;2.00;;
29570;SDS011;16814;52.118;11.436;2024-01-15T12:59:17;12.02;;;2.08;;
29570;SDS011;16814;52.118;11.436;2024-01-15T13:01:44;8.02;;;2.00;;
29570;SDS011;16814;52.118;11.436;2024-01-15T13:04:11;8.57;;;2.17;;
29570;SDS011;16814;52.118;11.436;2024-01-15T13:06:45;8.30;;;1.92;;
29570;SDS011;16814;52.118;11.436;2024-01-15T13:09:11;8.80;;;2.07;;
29570;SDS011;16814;52.118;11.436;2024-01-15T13:11:37;10.23;;;1.77;;
29570;SDS011;16814;52.118;11.436;2024-01-15T13:14:02;9.90;;;2.23;;
29570;SDS011;16814;52.118;11.436;2024-01-15T13:16:28;8.40;;;2.30;;
29570;SDS011;16814;52.118;11.436;2024-01-15T13:18:54;10.18;;;2.30;;
29570;SDS011;16814;52.118;11.436;2024-01-15T13:21:21;5.17;;;2.20;;
29570;SDS011;16814;52.118;11.436;2024-01-15T13:23:47;14.57;;;2.50;;
29570;SDS011;16814;52.118;11.436;2024-01-15T13:26:12;9.50;;;2.10;;
29570;SDS011;16814;52.118;11.436;2024-01-15T13:28:38;8.43;;;2.10;;
29570;SDS011;16814;52.118;11.436;2024-01-15T13:31:03;8.10;;;2.03;;
29570;SDS011;16814;52.118;11.436;2024-01-15T13:33:29;8.30;;;1.93;;
29570;SDS011;16814;52.118;11.436;2024-01-15T13:35:55;9.98;;;2.15;;
29570;SDS011;16814;52.118;11.436;2024-01-15T13:38:20;9.97;;;2.20;;
29570;SDS011;16814;52.118;11.436;2024-01-15T13:40:46;11.67;;;2.30;;
29570;SDS011;16814;52.118;11.436;2024-01-15T13:43:12;8.90;;;2.10;;
29570;SDS011;16814;52.118;11.436;2024-01-15T13:45:39;6.57;;;1.90;;
29570;SDS011;16814;52.118;11.436;2024-01-15T13:48:06;11.23;;;2.20;;
29570;SDS011;16814;52.118;11.436;2024-01-15T13:50:33;6.25;;;1.98;;
29570;SDS011;16814;52.118;11.436;2024-01-15T13:53:02;10.93;;;1.90;;
29570;SDS011;16814;52.118;11.436;2024-01-15T13:55:28;9.02;;;2.03;;
29570;SDS011;16814;52.118;11.436;2024-01-15T13:57:54;11.00;;;1.90;;
29570;SDS011;16814;52.118;11.436;2024-01-15T14:00:20;8.13;;;1.73;;
29570;SDS011;16814;52.118;11.436;2024-01-15T14:02:46;9.90;;;2.10;;
29570;SDS011;16814;52.118;11.436;2024-01-15T14:05:12;11.88;;;2.15;;
29570;SDS011;16814;52.118;11.436;2024-01-15T14:07:38;10.07;;;2.20;;
29570;SDS011;16814;52.118;11.436;2024-01-15T14:10:04;9.80;;;2.27;;
29570;SDS011;16814;52.118;11.436;2024-01-15T14:12:30;16.10;;;4.97;;
29570;SDS011;16814;52.118;11.436;2024-01-15T14:14:56;11.70;;;3.22;;
29570;SDS011;16814;52.118;11.436;2024-01-15T14:17:22;16.60;;;5.13;;
29570;SDS011;16814;52.118;11.436;2024-01-15T14:19:47;15.90;;;5.70;;
29570;SDS011;16814;52.118;11.436;2024-01-15T14:22:13;11.90;;;3.50;;
29570;SDS011;16814;52.118;11.436;2024-01-15T14:24:38;12.88;;;3.28;;
29570;SDS011;16814;52.118;11.436;2024-01-15T14:27:04;12.63;;;3.03;;
29570;SDS011;16814;52.118;11.436;2024-01-15T14:29:32;15.73;;;4.73;;
29570;SDS011;16814;52.118;11.436;2024-01-15T14:31:57;14.02;;;2.70;;
29570;SDS011;16814;52.118;11.436;2024-01-15T14:34:24;11.57;;;3.83;;
29570;SDS011;16814;52.118;11.436;2024-01-15T14:36:50;13.93;;;3.10;;
29570;SDS011;16814;52.118;11.436;2024-01-15T14:39:18;13.23;;;3.22;;